createdAt,value
2017-09-15T00:00:38.452Z,999.29
2017-09-15T00:01:19.023Z,999.3
2017-09-15T00:01:59.581Z,999.28
2017-09-15T00:02:40.147Z,999.32
2017-09-15T00:03:20.712Z,999.3
2017-09-15T00:04:01.268Z,999.38
2017-09-15T00:04:41.834Z,999.36
2017-09-15T00:05:22.405Z,999.35
2017-09-15T00:06:03.002Z,999.37
2017-09-15T00:06:43.564Z,999.34
2017-09-15T00:07:24.118Z,999.4
2017-09-15T00:08:04.686Z,999.42
2017-09-15T00:08:45.238Z,999.36
2017-09-15T00:09:25.806Z,999.43
2017-09-15T00:10:06.389Z,999.42
2017-09-15T00:10:46.970Z,999.38
2017-09-15T00:11:27.519Z,999.45
2017-09-15T00:12:08.156Z,999.42
2017-09-15T00:12:48.717Z,999.47
2017-09-15T00:13:29.288Z,999.49
2017-09-15T00:14:09.850Z,999.44
2017-09-15T00:14:50.475Z,999.43
2017-09-15T00:15:31.050Z,999.44
2017-09-15T00:16:11.620Z,999.44
2017-09-15T00:16:52.186Z,999.5
2017-09-15T00:17:32.746Z,999.48
2017-09-15T00:18:13.306Z,999.51
2017-09-15T00:18:53.906Z,999.5
2017-09-15T00:19:34.475Z,999.53
2017-09-15T00:20:15.038Z,999.53
2017-09-15T00:20:55.615Z,999.51
2017-09-15T00:21:36.170Z,999.59
2017-09-15T00:22:16.772Z,999.56
2017-09-15T00:22:57.342Z,999.58
2017-09-15T00:23:37.950Z,999.56
2017-09-15T00:24:18.518Z,999.61
2017-09-15T00:24:59.086Z,999.61
2017-09-15T00:25:39.652Z,999.57
2017-09-15T00:26:20.206Z,999.61
2017-09-15T00:27:00.774Z,999.61
2017-09-15T00:27:41.341Z,999.65
2017-09-15T00:28:21.913Z,999.62
2017-09-15T00:29:02.483Z,999.63
2017-09-15T00:29:43.041Z,999.63
2017-09-15T00:30:23.749Z,999.67
2017-09-15T00:31:04.307Z,999.66
2017-09-15T00:31:44.878Z,999.61
2017-09-15T00:32:25.436Z,999.63
2017-09-15T00:33:06.004Z,999.69
2017-09-15T00:33:46.570Z,999.67
2017-09-15T00:34:27.133Z,999.72
2017-09-15T00:35:07.689Z,999.72
2017-09-15T00:35:48.282Z,999.66
2017-09-15T00:36:28.864Z,999.69
2017-09-15T00:37:09.457Z,999.71
2017-09-15T00:37:50.010Z,999.72
2017-09-15T00:38:30.566Z,999.75
2017-09-15T00:39:11.134Z,999.77
2017-09-15T00:39:51.707Z,999.8
2017-09-15T00:40:32.265Z,999.77
2017-09-15T00:41:12.839Z,999.74
2017-09-15T00:41:53.415Z,999.77
2017-09-15T00:42:33.974Z,999.79
2017-09-15T00:43:14.543Z,999.82
2017-09-15T00:43:55.116Z,999.87
2017-09-15T00:44:35.676Z,999.84
2017-09-15T00:45:16.242Z,999.87
2017-09-15T00:45:56.831Z,999.84
2017-09-15T00:46:37.385Z,999.89
2017-09-15T00:47:17.983Z,999.92
2017-09-15T00:47:58.546Z,999.95
2017-09-15T00:48:39.132Z,999.97
2017-09-15T00:49:19.702Z,999.95
2017-09-15T00:50:00.264Z,999.99
2017-09-15T00:50:40.821Z,999.97
2017-09-15T00:51:21.373Z,999.95
2017-09-15T00:52:01.945Z,1000.01
2017-09-15T00:52:42.507Z,1000.01
2017-09-15T00:53:23.091Z,1000.04
2017-09-15T00:54:03.655Z,1000.01
2017-09-15T00:54:44.224Z,1000.05
2017-09-15T00:55:24.791Z,1000.03
2017-09-15T00:56:05.348Z,1000.01
2017-09-15T00:56:45.908Z,1000.17
2017-09-15T00:57:26.483Z,1000.04
2017-09-15T00:58:07.063Z,1000.07
2017-09-15T00:58:47.618Z,1000.09
2017-09-15T00:59:28.217Z,1000.16
2017-09-15T01:00:08.745Z,1000.13
2017-09-15T01:00:49.303Z,1000.09
2017-09-15T01:01:29.858Z,1000.16
2017-09-15T01:02:10.455Z,1000.12
2017-09-15T01:02:51.052Z,1000.14
2017-09-15T01:03:31.624Z,1000.14
2017-09-15T01:04:12.190Z,1000.17
2017-09-15T01:04:52.764Z,1000.17
2017-09-15T01:05:33.319Z,1000.18
2017-09-15T01:06:13.876Z,1000.16
2017-09-15T01:06:54.452Z,1000.16
2017-09-15T01:07:35.016Z,1000.24
2017-09-15T01:08:15.621Z,1000.27
2017-09-15T01:08:56.178Z,1000.22
2017-09-15T01:09:36.774Z,1000.28
2017-09-15T01:10:17.371Z,1000.25
2017-09-15T01:10:57.938Z,1000.23
2017-09-15T01:11:38.504Z,1000.29
2017-09-15T01:12:19.072Z,1000.32
2017-09-15T01:12:59.650Z,1000.31
2017-09-15T01:13:40.230Z,1000.3
2017-09-15T01:14:20.787Z,1000.28
2017-09-15T01:15:01.346Z,1000.23
2017-09-15T01:15:41.911Z,1000.23
2017-09-15T01:16:22.498Z,1000.23
2017-09-15T01:17:03.061Z,1000.25
2017-09-15T01:17:43.616Z,1000.25
2017-09-15T01:18:24.168Z,1000.29
2017-09-15T01:19:04.733Z,1000.25
2017-09-15T01:19:45.285Z,1000.29
2017-09-15T01:20:25.846Z,1000.31
2017-09-15T01:21:06.411Z,1000.34
2017-09-15T01:21:46.977Z,1000.37
2017-09-15T01:22:27.540Z,1000.39
2017-09-15T01:23:08.098Z,1000.34
2017-09-15T01:23:48.673Z,1000.42
2017-09-15T01:24:33.725Z,1000.37
2017-09-15T01:25:14.339Z,1000.39
2017-09-15T01:25:54.930Z,1000.38
2017-09-15T01:26:35.486Z,1000.42
2017-09-15T01:27:16.050Z,1000.5
2017-09-15T01:27:56.600Z,1000.49
2017-09-15T01:28:37.162Z,1000.5
2017-09-15T01:29:17.738Z,1000.54
2017-09-15T01:29:58.292Z,1000.47
2017-09-15T01:30:39.451Z,1000.54
2017-09-15T01:31:20.026Z,1000.51
2017-09-15T01:32:00.596Z,1000.51
2017-09-15T01:32:42.562Z,1000.5
2017-09-15T01:33:23.221Z,1000.49
2017-09-15T01:34:05.379Z,1000.51
2017-09-15T01:34:49.598Z,1000.54
2017-09-15T01:35:31.660Z,1000.57
2017-09-15T01:36:15.655Z,1000.56
2017-09-15T01:36:57.993Z,1000.59
2017-09-15T01:37:38.547Z,1000.61
2017-09-15T01:38:20.652Z,1000.63
2017-09-15T01:39:01.340Z,1000.61
2017-09-15T01:39:41.901Z,1000.65
2017-09-15T01:40:27.430Z,1000.69
2017-09-15T01:41:08.003Z,1000.68
2017-09-15T01:41:50.273Z,1000.74
2017-09-15T01:42:31.978Z,1000.72
2017-09-15T01:43:14.595Z,1000.74
2017-09-15T01:43:57.354Z,1000.75
2017-09-15T01:44:38.366Z,1000.79
2017-09-15T01:45:18.962Z,1000.84
2017-09-15T01:46:00.622Z,1000.76
2017-09-15T01:46:43.559Z,1000.79
2017-09-15T01:47:26.149Z,1000.83
2017-09-15T01:48:06.410Z,1000.9
2017-09-15T01:48:47.753Z,1000.92
2017-09-15T01:49:28.877Z,1000.9
2017-09-15T01:50:09.440Z,1000.91
2017-09-15T01:50:50.018Z,1000.9
2017-09-15T01:51:33.073Z,1000.94
2017-09-15T01:52:13.900Z,1000.92
2017-09-15T01:52:55.934Z,1000.94
2017-09-15T01:53:39.380Z,1000.99
2017-09-15T01:54:19.942Z,1000.98
2017-09-15T01:55:01.612Z,1000.98
2017-09-15T01:55:41.469Z,1000.98
2017-09-15T01:56:23.641Z,1000.97
2017-09-15T01:57:08.638Z,1001.01
2017-09-15T01:57:48.574Z,1001.05
2017-09-15T01:58:29.150Z,1001.01
2017-09-15T01:59:12.434Z,1001
2017-09-15T01:59:53.002Z,1001
2017-09-15T02:00:33.570Z,1000.98
2017-09-15T02:01:14.131Z,1000.99
2017-09-15T02:01:54.714Z,1001
2017-09-15T02:02:35.299Z,1001.02
2017-09-15T02:03:15.902Z,1000.95
2017-09-15T02:03:56.460Z,1000.95
2017-09-15T02:04:37.026Z,1001.02
2017-09-15T02:05:18.750Z,1000.98
2017-09-15T02:05:59.307Z,1001.02
2017-09-15T02:06:39.863Z,1001
2017-09-15T02:07:20.440Z,1001
2017-09-15T02:08:01.027Z,1001.03
2017-09-15T02:08:41.889Z,1000.96
2017-09-15T02:09:22.314Z,1001.02
2017-09-15T02:10:02.937Z,1001.01
2017-09-15T02:10:43.491Z,1001.04
2017-09-15T02:11:24.059Z,1001.08
2017-09-15T02:12:04.618Z,1001.06
2017-09-15T02:12:45.201Z,1001.06
2017-09-15T02:13:25.756Z,1001.05
2017-09-15T02:14:06.439Z,1001.07
2017-09-15T02:14:47.026Z,1001.07
2017-09-15T02:15:27.612Z,1001.11
2017-09-15T02:16:08.382Z,1001.12
2017-09-15T02:16:48.948Z,1001.09
2017-09-15T02:17:29.518Z,1001.13
2017-09-15T02:18:10.088Z,1001.14
2017-09-15T02:18:50.645Z,1001.16
2017-09-15T02:19:31.221Z,1001.14
2017-09-15T02:20:11.789Z,1001.13
2017-09-15T02:20:52.346Z,1001.11
2017-09-15T02:21:32.936Z,1001.17
2017-09-15T02:22:13.507Z,1001.14
2017-09-15T02:22:54.067Z,1001.22
2017-09-15T02:23:34.634Z,1001.2
2017-09-15T02:24:15.210Z,1001.18
2017-09-15T02:24:55.767Z,1001.22
2017-09-15T02:25:36.322Z,1001.23
2017-09-15T02:26:16.968Z,1001.27
2017-09-15T02:26:57.532Z,1001.28
2017-09-15T02:27:38.094Z,1001.3
2017-09-15T02:28:18.677Z,1001.31
2017-09-15T02:28:59.265Z,1001.29
2017-09-15T02:29:39.824Z,1001.34
2017-09-15T02:30:21.234Z,1001.3
2017-09-15T02:31:01.809Z,1001.36
2017-09-15T02:31:42.371Z,1001.38
2017-09-15T02:32:22.926Z,1001.4
2017-09-15T02:33:03.595Z,1001.37
2017-09-15T02:33:44.162Z,1001.43
2017-09-15T02:34:24.725Z,1001.52
2017-09-15T02:35:05.280Z,1001.46
2017-09-15T02:35:45.895Z,1001.44
2017-09-15T02:36:26.448Z,1001.5
2017-09-15T02:37:06.996Z,1001.48
2017-09-15T02:37:47.558Z,1001.47
2017-09-15T02:38:28.231Z,1001.51
2017-09-15T02:39:08.798Z,1001.49
2017-09-15T02:39:49.373Z,1001.47
2017-09-15T02:40:29.942Z,1001.48
2017-09-15T02:41:10.521Z,1001.46
2017-09-15T02:41:51.209Z,1001.5
2017-09-15T02:42:31.786Z,1001.49
2017-09-15T02:43:12.362Z,1001.51
2017-09-15T02:43:52.926Z,1001.49
2017-09-15T02:44:33.593Z,1001.57
2017-09-15T02:45:14.156Z,1001.56
2017-09-15T02:45:54.727Z,1001.54
2017-09-15T02:46:35.337Z,1001.62
2017-09-15T02:47:15.912Z,1001.62
2017-09-15T02:47:56.476Z,1001.6
2017-09-15T02:48:37.029Z,1001.61
2017-09-15T02:49:17.885Z,1001.59
2017-09-15T02:49:58.434Z,1001.67
2017-09-15T02:50:39.009Z,1001.76
2017-09-15T02:51:19.827Z,1001.72
2017-09-15T02:52:00.267Z,1001.73
2017-09-15T02:52:40.827Z,1001.79
2017-09-15T02:53:21.398Z,1001.76
2017-09-15T02:54:01.948Z,1001.78
2017-09-15T02:54:42.509Z,1001.77
2017-09-15T02:55:23.090Z,1001.83
2017-09-15T02:56:03.645Z,1001.84
2017-09-15T02:56:44.227Z,1001.85
2017-09-15T02:57:24.795Z,1001.85
2017-09-15T02:58:05.353Z,1001.87
2017-09-15T02:58:45.908Z,1001.81
2017-09-15T02:59:26.482Z,1001.86
2017-09-15T03:00:07.101Z,1001.9
2017-09-15T03:00:47.675Z,1001.9
2017-09-15T03:01:28.227Z,1001.94
2017-09-15T03:02:08.794Z,1001.88
2017-09-15T03:02:49.361Z,1001.9
2017-09-15T03:03:29.932Z,1001.89
2017-09-15T03:04:10.574Z,1001.91
2017-09-15T03:04:51.144Z,1001.9
2017-09-15T03:05:31.710Z,1001.9
2017-09-15T03:06:12.444Z,1001.94
2017-09-15T03:06:52.934Z,1001.93
2017-09-15T03:07:33.497Z,1001.9
2017-09-15T03:08:14.053Z,1001.93
2017-09-15T03:08:54.782Z,1001.91
2017-09-15T03:09:35.342Z,1001.94
2017-09-15T03:10:15.908Z,1001.93
2017-09-15T03:10:56.471Z,1001.93
2017-09-15T03:11:37.031Z,1001.95
2017-09-15T03:12:18.006Z,1001.9
2017-09-15T03:12:58.570Z,1001.95
2017-09-15T03:13:39.141Z,1001.98
2017-09-15T03:14:19.704Z,1002
2017-09-15T03:15:00.291Z,1002.04
2017-09-15T03:15:40.854Z,1002
2017-09-15T03:16:21.405Z,1002.01
2017-09-15T03:17:01.980Z,1002.01
2017-09-15T03:17:42.546Z,1002
2017-09-15T03:18:23.138Z,1002.03
2017-09-15T03:19:03.694Z,1002.09
2017-09-15T03:19:44.255Z,1002.07
2017-09-15T03:20:24.826Z,1002.13
2017-09-15T03:21:05.401Z,1002.08
2017-09-15T03:21:45.984Z,1002.13
2017-09-15T03:22:27.093Z,1002.11
2017-09-15T03:23:07.779Z,1002.14
2017-09-15T03:23:48.359Z,1002.16
2017-09-15T03:24:28.947Z,1002.16
2017-09-15T03:25:09.518Z,1002.18
2017-09-15T03:25:50.074Z,1002.17
2017-09-15T03:26:31.212Z,1002.13
2017-09-15T03:27:11.780Z,1002.16
2017-09-15T03:27:52.379Z,1002.18
2017-09-15T03:28:32.985Z,1002.22
2017-09-15T03:29:13.535Z,1002.22
2017-09-15T03:29:54.105Z,1002.18
2017-09-15T03:30:34.662Z,1002.28
2017-09-15T03:31:16.332Z,1002.24
2017-09-15T03:31:57.022Z,1002.28
2017-09-15T03:32:37.585Z,1002.31
2017-09-15T03:33:18.730Z,1002.32
2017-09-15T03:33:59.295Z,1002.34
2017-09-15T03:34:39.870Z,1002.34
2017-09-15T03:35:20.438Z,1002.34
2017-09-15T03:36:01.281Z,1002.38
2017-09-15T03:36:41.855Z,1002.36
2017-09-15T03:37:22.438Z,1002.29
2017-09-15T03:38:03.006Z,1002.32
2017-09-15T03:38:43.563Z,1002.31
2017-09-15T03:39:24.135Z,1002.36
2017-09-15T03:40:04.703Z,1002.32
2017-09-15T03:40:45.278Z,1002.32
2017-09-15T03:41:25.858Z,1002.36
2017-09-15T03:42:06.628Z,1002.38
2017-09-15T03:42:47.207Z,1002.4
2017-09-15T03:43:27.766Z,1002.44
2017-09-15T03:44:08.335Z,1002.41
2017-09-15T03:44:48.910Z,1002.41
2017-09-15T03:45:29.500Z,1002.37
2017-09-15T03:46:10.054Z,1002.39
2017-09-15T03:46:50.610Z,1002.41
2017-09-15T03:47:31.155Z,1002.45
2017-09-15T03:48:11.737Z,1002.44
2017-09-15T03:48:52.289Z,1002.43
2017-09-15T03:49:32.884Z,1002.41
2017-09-15T03:50:13.429Z,1002.46
2017-09-15T03:50:54.007Z,1002.42
2017-09-15T03:51:34.597Z,1002.43
2017-09-15T03:52:15.311Z,1002.45
2017-09-15T03:52:55.870Z,1002.43
2017-09-15T03:53:36.471Z,1002.43
2017-09-15T03:54:17.040Z,1002.45
2017-09-15T03:54:57.598Z,1002.46
2017-09-15T03:55:38.159Z,1002.46
2017-09-15T03:56:18.720Z,1002.45
2017-09-15T03:56:59.289Z,1002.44
2017-09-15T03:57:39.880Z,1002.45
2017-09-15T03:58:20.438Z,1002.45
2017-09-15T03:59:01.027Z,1002.45
2017-09-15T03:59:41.622Z,1002.47
2017-09-15T04:00:22.378Z,1002.54
2017-09-15T04:01:02.926Z,1002.48
2017-09-15T04:01:43.527Z,1002.58
2017-09-15T04:02:24.065Z,1002.52
2017-09-15T04:03:04.879Z,1002.53
2017-09-15T04:03:45.312Z,1002.52
2017-09-15T04:04:25.874Z,1002.56
2017-09-15T04:05:06.448Z,1002.55
2017-09-15T04:05:47.011Z,1002.56
2017-09-15T04:06:27.596Z,1002.53
2017-09-15T04:07:08.173Z,1002.59
2017-09-15T04:07:48.754Z,1002.57
2017-09-15T04:08:29.321Z,1002.55
2017-09-15T04:09:10.290Z,1002.57
2017-09-15T04:09:50.865Z,1002.55
2017-09-15T04:10:31.433Z,1002.55
2017-09-15T04:11:12.006Z,1002.62
2017-09-15T04:11:52.566Z,1002.62
2017-09-15T04:12:33.128Z,1002.66
2017-09-15T04:13:13.710Z,1002.69
2017-09-15T04:13:54.266Z,1002.65
2017-09-15T04:14:34.842Z,1002.71
2017-09-15T04:15:15.400Z,1002.76
2017-09-15T04:15:55.974Z,1002.8
2017-09-15T04:16:36.572Z,1002.7
2017-09-15T04:17:17.133Z,1002.73
2017-09-15T04:17:57.684Z,1002.77
2017-09-15T04:18:38.250Z,1002.78
2017-09-15T04:19:18.817Z,1002.84
2017-09-15T04:19:59.388Z,1002.8
2017-09-15T04:20:39.954Z,1002.88
2017-09-15T04:21:20.539Z,1002.86
2017-09-15T04:22:01.146Z,1002.85
2017-09-15T04:22:41.721Z,1002.86
2017-09-15T04:23:22.326Z,1002.91
2017-09-15T04:24:02.881Z,1002.94
2017-09-15T04:24:43.443Z,1002.95
2017-09-15T04:25:24.023Z,1002.96
2017-09-15T04:26:04.636Z,1002.98
2017-09-15T04:26:45.236Z,1002.93
2017-09-15T04:27:25.812Z,1003.04
2017-09-15T04:28:06.385Z,1003.03
2017-09-15T04:28:46.955Z,1002.94
2017-09-15T04:29:27.509Z,1003.03
2017-09-15T04:30:08.094Z,1003.09
2017-09-15T04:30:48.687Z,1003.14
2017-09-15T04:31:29.450Z,1003.05
2017-09-15T04:32:10.012Z,1003.1
2017-09-15T04:32:50.582Z,1003.01
2017-09-15T04:33:31.173Z,1003.11
2017-09-15T04:34:11.799Z,1003.08
2017-09-15T04:34:52.356Z,1003.04
2017-09-15T04:35:32.965Z,1003.1
2017-09-15T04:36:13.637Z,1003.09
2017-09-15T04:36:54.231Z,1003.13
2017-09-15T04:37:34.790Z,1003.13
2017-09-15T04:38:15.365Z,1003.2
2017-09-15T04:38:55.924Z,1003.18
2017-09-15T04:39:36.480Z,1003.17
2017-09-15T04:40:17.040Z,1003.2
2017-09-15T04:40:57.610Z,1003.22
2017-09-15T04:41:38.176Z,1003.21
2017-09-15T04:42:18.750Z,1003.25
2017-09-15T04:42:59.326Z,1003.2
2017-09-15T04:43:39.887Z,1003.21
2017-09-15T04:44:20.459Z,1003.22
2017-09-15T04:45:01.098Z,1003.21
2017-09-15T04:45:41.671Z,1003.23
2017-09-15T04:46:22.225Z,1003.28
2017-09-15T04:47:02.799Z,1003.22
2017-09-15T04:47:43.392Z,1003.27
2017-09-15T04:48:24.042Z,1003.25
2017-09-15T04:49:04.597Z,1003.3
2017-09-15T04:49:45.208Z,1003.34
2017-09-15T04:50:25.782Z,1003.37
2017-09-15T04:51:06.602Z,1003.3
2017-09-15T04:51:47.167Z,1003.35
2017-09-15T04:52:27.735Z,1003.34
2017-09-15T04:53:08.309Z,1003.34
2017-09-15T04:53:48.884Z,1003.34
2017-09-15T04:54:29.459Z,1003.29
2017-09-15T04:55:10.022Z,1003.36
2017-09-15T04:55:50.597Z,1003.37
2017-09-15T04:56:31.156Z,1003.39
2017-09-15T04:57:11.735Z,1003.41
2017-09-15T04:57:52.312Z,1003.36
2017-09-15T04:58:32.892Z,1003.41
2017-09-15T04:59:13.462Z,1003.39
2017-09-15T04:59:54.033Z,1003.43
2017-09-15T05:00:34.596Z,1003.47
2017-09-15T05:01:15.197Z,1003.45
2017-09-15T05:01:55.760Z,1003.52
2017-09-15T05:02:36.320Z,1003.51
2017-09-15T05:03:16.898Z,1003.58
2017-09-15T05:03:57.481Z,1003.51
2017-09-15T05:04:38.027Z,1003.54
2017-09-15T05:05:18.610Z,1003.54
2017-09-15T05:05:59.229Z,1003.55
2017-09-15T05:06:39.799Z,1003.59
2017-09-15T05:07:20.362Z,1003.58
2017-09-15T05:08:00.920Z,1003.63
2017-09-15T05:08:41.471Z,1003.64
2017-09-15T05:09:22.036Z,1003.62
2017-09-15T05:10:02.609Z,1003.61
2017-09-15T05:10:43.168Z,1003.59
2017-09-15T05:11:23.734Z,1003.62
2017-09-15T05:12:04.301Z,1003.61
2017-09-15T05:12:44.856Z,1003.68
2017-09-15T05:13:25.429Z,1003.71
2017-09-15T05:14:05.990Z,1003.73
2017-09-15T05:14:46.542Z,1003.68
2017-09-15T05:15:27.165Z,1003.73
2017-09-15T05:16:07.730Z,1003.78
2017-09-15T05:16:48.287Z,1003.78
2017-09-15T05:17:28.845Z,1003.81
2017-09-15T05:18:09.423Z,1003.83
2017-09-15T05:18:49.994Z,1003.84
2017-09-15T05:19:30.557Z,1003.88
2017-09-15T05:20:11.121Z,1003.88
2017-09-15T05:20:51.694Z,1003.9
2017-09-15T05:21:32.254Z,1003.91
2017-09-15T05:22:12.810Z,1003.93
2017-09-15T05:22:53.393Z,1003.96
2017-09-15T05:23:33.978Z,1003.96
2017-09-15T05:24:14.540Z,1003.94
2017-09-15T05:24:55.108Z,1003.98
2017-09-15T05:25:35.664Z,1003.95
2017-09-15T05:26:16.247Z,1004.01
2017-09-15T05:26:56.827Z,1003.95
2017-09-15T05:27:37.383Z,1003.99
2017-09-15T05:28:17.943Z,1003.99
2017-09-15T05:28:58.512Z,1004
2017-09-15T05:29:39.075Z,1004.02
2017-09-15T05:30:19.627Z,1003.96
2017-09-15T05:31:00.197Z,1003.98
2017-09-15T05:31:40.752Z,1004.03
2017-09-15T05:32:21.316Z,1004.05
2017-09-15T05:33:01.894Z,1004.09
2017-09-15T05:33:42.470Z,1004.04
2017-09-15T05:34:23.039Z,1004.04
2017-09-15T05:35:03.589Z,1004.04
2017-09-15T05:35:44.139Z,1004.09
2017-09-15T05:36:24.695Z,1004.05
2017-09-15T05:37:05.250Z,1004.06
2017-09-15T05:37:45.813Z,1004.06
2017-09-15T05:38:26.380Z,1004.05
2017-09-15T05:39:06.946Z,1004.02
2017-09-15T05:39:47.562Z,1004.08
2017-09-15T05:40:28.123Z,1004.12
2017-09-15T05:41:08.701Z,1004.08
2017-09-15T05:41:49.253Z,1004.11
2017-09-15T05:42:29.812Z,1004.16
2017-09-15T05:43:10.369Z,1004.11
2017-09-15T05:43:50.938Z,1004.16
2017-09-15T05:44:31.496Z,1004.19
2017-09-15T05:45:12.057Z,1004.18
2017-09-15T05:45:52.658Z,1004.19
2017-09-15T05:46:33.228Z,1004.17
2017-09-15T05:47:13.791Z,1004.17
2017-09-15T05:47:54.349Z,1004.27
2017-09-15T05:48:34.914Z,1004.2
2017-09-15T05:49:15.479Z,1004.27
2017-09-15T05:49:56.051Z,1004.24
2017-09-15T05:50:36.625Z,1004.25
2017-09-15T05:51:17.181Z,1004.25
2017-09-15T05:51:57.765Z,1004.24
2017-09-15T05:52:38.332Z,1004.34
2017-09-15T05:53:18.887Z,1004.34
2017-09-15T05:53:59.445Z,1004.36
2017-09-15T05:54:40.035Z,1004.4
2017-09-15T05:55:20.603Z,1004.4
2017-09-15T05:56:01.165Z,1004.37
2017-09-15T05:56:41.749Z,1004.46
2017-09-15T05:57:22.316Z,1004.45
2017-09-15T05:58:02.869Z,1004.45
2017-09-15T05:58:43.438Z,1004.44
2017-09-15T05:59:23.989Z,1004.47
2017-09-15T06:00:04.565Z,1004.49
2017-09-15T06:00:45.150Z,1004.51
2017-09-15T06:01:25.690Z,1004.47
2017-09-15T06:02:06.233Z,1004.52
2017-09-15T06:02:46.793Z,1004.54
2017-09-15T06:03:27.356Z,1004.53
2017-09-15T06:04:08.454Z,1004.56
2017-09-15T06:04:49.035Z,1004.56
2017-09-15T06:05:29.630Z,1004.56
2017-09-15T06:06:10.246Z,1004.61
2017-09-15T06:06:50.762Z,1004.64
2017-09-15T06:07:31.318Z,1004.64
2017-09-15T06:08:11.880Z,1004.63
2017-09-15T06:08:52.462Z,1004.62
2017-09-15T06:09:33.017Z,1004.65
2017-09-15T06:10:13.608Z,1004.71
2017-09-15T06:10:54.174Z,1004.66
2017-09-15T06:11:34.744Z,1004.69
2017-09-15T06:12:15.309Z,1004.68
2017-09-15T06:12:55.870Z,1004.69
2017-09-15T06:13:36.430Z,1004.76
2017-09-15T06:14:17.005Z,1004.85
2017-09-15T06:14:57.568Z,1004.75
2017-09-15T06:15:38.125Z,1004.79
2017-09-15T06:16:18.706Z,1004.77
2017-09-15T06:16:59.274Z,1004.83
2017-09-15T06:17:39.829Z,1004.86
2017-09-15T06:18:20.394Z,1004.87
2017-09-15T06:19:01.020Z,1004.84
2017-09-15T06:19:41.634Z,1004.91
2017-09-15T06:20:22.207Z,1004.9
2017-09-15T06:21:02.779Z,1004.81
2017-09-15T06:21:43.352Z,1004.86
2017-09-15T06:22:23.946Z,1004.89
2017-09-15T06:23:04.536Z,1004.9
2017-09-15T06:23:45.095Z,1004.95
2017-09-15T06:24:25.690Z,1004.97
2017-09-15T06:25:06.248Z,1004.99
2017-09-15T06:25:46.824Z,1004.92
2017-09-15T06:26:27.382Z,1004.99
2017-09-15T06:27:07.941Z,1004.99
2017-09-15T06:27:48.557Z,1005.02
2017-09-15T06:28:29.125Z,1004.99
2017-09-15T06:29:09.677Z,1005.01
2017-09-15T06:29:50.248Z,1005.04
2017-09-15T06:30:30.848Z,1005.06
2017-09-15T06:31:11.400Z,1005.06
2017-09-15T06:31:51.962Z,1005.08
2017-09-15T06:32:32.520Z,1005.09
2017-09-15T06:33:13.082Z,1005.11
2017-09-15T06:33:53.638Z,1005.09
2017-09-15T06:34:34.223Z,1005.11
2017-09-15T06:35:14.844Z,1005.01
2017-09-15T06:35:55.443Z,1005.07
2017-09-15T06:36:36.047Z,1005.11
2017-09-15T06:37:16.600Z,1005.11
2017-09-15T06:37:57.155Z,1005.12
2017-09-15T06:38:37.718Z,1005.15
2017-09-15T06:39:18.265Z,1005.14
2017-09-15T06:39:58.865Z,1005.15
2017-09-15T06:40:40.365Z,1005.21
2017-09-15T06:41:20.989Z,1005.22
2017-09-15T06:42:01.571Z,1005.2
2017-09-15T06:42:42.130Z,1005.11
2017-09-15T06:43:22.691Z,1005.12
2017-09-15T06:44:03.245Z,1005.16
2017-09-15T06:44:43.799Z,1005.19
2017-09-15T06:45:24.361Z,1005.19
2017-09-15T06:46:04.916Z,1005.2
2017-09-15T06:46:45.478Z,1005.24
2017-09-15T06:47:26.047Z,1005.25
2017-09-15T06:48:06.611Z,1005.27
2017-09-15T06:48:47.183Z,1005.22
2017-09-15T06:49:27.742Z,1005.25
2017-09-15T06:50:08.313Z,1005.28
2017-09-15T06:50:48.886Z,1005.27
2017-09-15T06:51:29.458Z,1005.3
2017-09-15T06:52:10.036Z,1005.29
2017-09-15T06:52:50.601Z,1005.3
2017-09-15T06:53:31.160Z,1005.33
2017-09-15T06:54:11.715Z,1005.34
2017-09-15T06:54:52.277Z,1005.36
2017-09-15T06:55:32.940Z,1005.32
2017-09-15T06:56:13.555Z,1005.31
2017-09-15T06:56:54.114Z,1005.32
2017-09-15T06:57:34.699Z,1005.31
2017-09-15T06:58:15.252Z,1005.32
2017-09-15T06:58:55.812Z,1005.32
2017-09-15T06:59:36.405Z,1005.39
2017-09-15T07:00:16.983Z,1005.35
2017-09-15T07:00:57.566Z,1005.39
2017-09-15T07:01:38.143Z,1005.36
2017-09-15T07:02:18.725Z,1005.43
2017-09-15T07:02:59.325Z,1005.38
2017-09-15T07:03:39.883Z,1005.36
2017-09-15T07:04:20.485Z,1005.38
2017-09-15T07:05:01.061Z,1005.46
2017-09-15T07:05:41.634Z,1005.44
2017-09-15T07:06:22.215Z,1005.49
2017-09-15T07:07:02.778Z,1005.55
2017-09-15T07:07:43.332Z,1005.61
2017-09-15T07:08:23.914Z,1005.49
2017-09-15T07:09:04.482Z,1005.53
2017-09-15T07:09:45.076Z,1005.5
2017-09-15T07:10:25.671Z,1005.51
2017-09-15T07:11:06.274Z,1005.52
2017-09-15T07:11:46.943Z,1005.68
2017-09-15T07:12:27.502Z,1005.58
2017-09-15T07:13:08.079Z,1005.54
2017-09-15T07:13:48.670Z,1005.61
2017-09-15T07:14:29.281Z,1005.73
2017-09-15T07:15:09.829Z,1005.62
2017-09-15T07:15:50.410Z,1005.66
2017-09-15T07:16:30.979Z,1005.83
2017-09-15T07:17:11.635Z,1005.73
2017-09-15T07:17:52.206Z,1005.77
2017-09-15T07:18:32.769Z,1005.64
2017-09-15T07:19:13.361Z,1005.66
2017-09-15T07:19:53.928Z,1005.84
2017-09-15T07:20:34.484Z,1005.67
2017-09-15T07:21:15.090Z,1005.68
2017-09-15T07:21:55.673Z,1005.77
2017-09-15T07:22:36.233Z,1005.88
2017-09-15T07:23:16.836Z,1005.8
2017-09-15T07:23:57.416Z,1005.92
2017-09-15T07:24:37.974Z,1005.98
2017-09-15T07:25:18.538Z,1006.04
2017-09-15T07:25:59.118Z,1006.02
2017-09-15T07:26:39.692Z,1006.06
2017-09-15T07:27:20.267Z,1006.11
2017-09-15T07:28:02.340Z,1006.06
2017-09-15T07:28:43.244Z,1005.83
2017-09-15T07:29:23.918Z,1006.13
2017-09-15T07:30:04.700Z,1006.14
2017-09-15T07:30:45.630Z,1006.19
2017-09-15T07:31:26.178Z,1005.97
2017-09-15T07:32:07.134Z,1006.06
2017-09-15T07:32:47.720Z,1006.08
2017-09-15T07:33:28.310Z,1006.21
2017-09-15T07:34:08.895Z,1006.23
2017-09-15T07:34:49.505Z,1006.28
2017-09-15T07:35:30.123Z,1006.17
2017-09-15T07:36:10.676Z,1006.19
2017-09-15T07:36:51.267Z,1006.16
2017-09-15T07:37:31.890Z,1006.16
2017-09-15T07:38:12.668Z,1006.1
2017-09-15T07:38:53.320Z,1006.42
2017-09-15T07:39:33.927Z,1006.48
2017-09-15T07:40:14.515Z,1006.45
2017-09-15T07:40:55.196Z,1006.29
2017-09-15T07:41:35.764Z,1006.41
2017-09-15T07:42:16.325Z,1006.52
2017-09-15T07:42:57.139Z,1006.55
2017-09-15T07:43:37.712Z,1006.54
2017-09-15T07:44:18.282Z,1006.46
2017-09-15T07:44:58.888Z,1006.55
2017-09-15T07:45:39.461Z,1006.49
2017-09-15T07:46:20.022Z,1006.29
2017-09-15T07:47:00.626Z,1006.57
2017-09-15T07:47:41.243Z,1006.59
2017-09-15T07:48:21.812Z,1006.39
2017-09-15T07:49:02.415Z,1006.35
2017-09-15T07:49:42.991Z,1006.33
2017-09-15T07:50:23.613Z,1006.35
2017-09-15T07:51:04.180Z,1006.35
2017-09-15T07:51:44.753Z,1006.38
2017-09-15T07:52:25.359Z,1006.59
2017-09-15T07:53:05.929Z,1006.48
2017-09-15T07:53:46.499Z,1006.6
2017-09-15T07:54:27.074Z,1006.58
2017-09-15T07:55:07.653Z,1006.44
2017-09-15T07:55:48.286Z,1006.42
2017-09-15T07:56:28.866Z,1006.6
2017-09-15T07:57:09.443Z,1006.59
2017-09-15T07:57:50.018Z,1006.5
2017-09-15T07:58:30.592Z,1006.51
2017-09-15T07:59:11.182Z,1006.47
2017-09-15T07:59:51.781Z,1006.54
2017-09-15T08:00:32.339Z,1006.68
2017-09-15T08:01:12.920Z,1006.51
2017-09-15T08:01:53.492Z,1006.5
2017-09-15T08:02:34.077Z,1006.56
2017-09-15T08:03:14.641Z,1006.7
2017-09-15T08:03:55.217Z,1006.67
2017-09-15T08:04:35.794Z,1006.72
2017-09-15T08:05:16.361Z,1006.68
2017-09-15T08:05:56.951Z,1006.61
2017-09-15T08:06:37.525Z,1006.63
2017-09-15T08:07:18.111Z,1006.67
2017-09-15T08:07:58.697Z,1006.5
2017-09-15T08:08:39.376Z,1006.55
2017-09-15T08:09:19.969Z,1006.54
2017-09-15T08:10:00.545Z,1006.7
2017-09-15T08:10:41.117Z,1006.7
2017-09-15T08:11:21.722Z,1006.7
2017-09-15T08:12:02.329Z,1006.74
2017-09-15T08:12:42.912Z,1006.59
2017-09-15T08:13:23.482Z,1006.65
2017-09-15T08:14:04.065Z,1006.6
2017-09-15T08:14:44.638Z,1006.69
2017-09-15T08:15:25.214Z,1006.59